sensor_id;sensor_type;location;lat;lon;timestamp;P1;durP1;ratioP1;P2;durP2;ratioP2
4102;SDS011;2065;49.790;9.620;2023-04-24T00:01:10;2.37;;;1.43;;
4102;SDS011;2065;49.790;9.620;2023-04-24T00:03:38;1.30;;;1.20;;
4102;SDS011;2065;49.790;9.620;2023-04-24T00:06:05;13.17;;;1.97;;
4102;SDS011;2065;49.790;9.620;2023-04-24T00:08:33;1.43;;;1.00;;
4102;SDS011;2065;49.790;9.620;2023-04-24T00:11:01;1.60;;;1.50;;
4102;SDS011;2065;49.790;9.620;2023-04-24T00:13:28;1.30;;;1.00;;
4102;SDS011;2065;49.790;9.620;2023-04-24T00:15:56;1.60;;;1.30;;
4102;SDS011;2065;49.790;9.620;2023-04-24T00:18:23;1.53;;;1.30;;
4102;SDS011;2065;49.790;9.620;2023-04-24T00:20:51;2.17;;;1.53;;
4102;SDS011;2065;49.790;9.620;2023-04-24T00:23:18;1.50;;;1.40;;
4102;SDS011;2065;49.790;9.620;2023-04-24T00:25:45;2.30;;;1.40;;
4102;SDS011;2065;49.790;9.620;2023-04-24T00:28:12;2.30;;;1.20;;
4102;SDS011;2065;49.790;9.620;2023-04-24T00:30:39;2.63;;;1.20;;
4102;SDS011;2065;49.790;9.620;2023-04-24T00:33:08;1.10;;;1.00;;
4102;SDS011;2065;49.790;9.620;2023-04-24T00:35:35;1.70;;;1.20;;
4102;SDS011;2065;49.790;9.620;2023-04-24T00:38:03;1.50;;;1.40;;
4102;SDS011;2065;49.790;9.620;2023-04-24T00:40:30;1.57;;;1.47;;
4102;SDS011;2065;49.790;9.620;2023-04-24T00:42:58;2.90;;;1.50;;
4102;SDS011;2065;49.790;9.620;2023-04-24T00:45:25;1.70;;;1.30;;
4102;SDS011;2065;49.790;9.620;2023-04-24T00:47:52;1.33;;;1.23;;
4102;SDS011;2065;49.790;9.620;2023-04-24T00:50:21;3.17;;;1.37;;
4102;SDS011;2065;49.790;9.620;2023-04-24T00:52:50;2.47;;;1.40;;
4102;SDS011;2065;49.790;9.620;2023-04-24T00:55:17;1.57;;;1.47;;
4102;SDS011;2065;49.790;9.620;2023-04-24T00:57:45;2.03;;;1.43;;
4102;SDS011;2065;49.790;9.620;2023-04-24T01:00:13;4.80;;;1.50;;
4102;SDS011;2065;49.790;9.620;2023-04-24T01:02:42;2.10;;;1.10;;
4102;SDS011;2065;49.790;9.620;2023-04-24T01:05:10;1.30;;;1.20;;
4102;SDS011;2065;49.790;9.620;2023-04-24T01:07:40;2.03;;;1.00;;
4102;SDS011;2065;49.790;9.620;2023-04-24T01:10:10;2.27;;;1.30;;
4102;SDS011;2065;49.790;9.620;2023-04-24T01:12:39;1.60;;;1.10;;
4102;SDS011;2065;49.790;9.620;2023-04-24T01:15:07;2.17;;;1.30;;
4102;SDS011;2065;49.790;9.620;2023-04-24T01:17:35;5.20;;;1.20;;
4102;SDS011;2065;49.790;9.620;2023-04-24T01:20:04;1.67;;;1.50;;
4102;SDS011;2065;49.790;9.620;2023-04-24T01:22:33;5.47;;;1.40;;
4102;SDS011;2065;49.790;9.620;2023-04-24T01:25:01;1.00;;;0.90;;
4102;SDS011;2065;49.790;9.620;2023-04-24T01:27:29;1.33;;;1.23;;
4102;SDS011;2065;49.790;9.620;2023-04-24T01:29:56;3.90;;;1.20;;
4102;SDS011;2065;49.790;9.620;2023-04-24T01:32:24;1.40;;;1.00;;
4102;SDS011;2065;49.790;9.620;2023-04-24T01:34:51;1.40;;;1.10;;
4102;SDS011;2065;49.790;9.620;2023-04-24T01:37:18;1.20;;;1.00;;
4102;SDS011;2065;49.790;9.620;2023-04-24T01:39:47;1.73;;;1.00;;
4102;SDS011;2065;49.790;9.620;2023-04-24T01:42:14;1.60;;;1.00;;
4102;SDS011;2065;49.790;9.620;2023-04-24T01:44:42;1.30;;;1.00;;
4102;SDS011;2065;49.790;9.620;2023-04-24T01:47:09;1.83;;;1.20;;
4102;SDS011;2065;49.790;9.620;2023-04-24T01:49:37;1.73;;;1.20;;
4102;SDS011;2065;49.790;9.620;2023-04-24T01:52:05;2.50;;;1.20;;
4102;SDS011;2065;49.790;9.620;2023-04-24T01:54:32;1.20;;;1.10;;
4102;SDS011;2065;49.790;9.620;2023-04-24T01:57:02;1.40;;;0.97;;
4102;SDS011;2065;49.790;9.620;2023-04-24T01:59:29;2.40;;;1.10;;
4102;SDS011;2065;49.790;9.620;2023-04-24T02:01:58;1.60;;;1.30;;
4102;SDS011;2065;49.790;9.620;2023-04-24T02:04:25;1.63;;;1.00;;
4102;SDS011;2065;49.790;9.620;2023-04-24T02:06:52;1.50;;;1.17;;
4102;SDS011;2065;49.790;9.620;2023-04-24T02:09:19;1.67;;;1.20;;
4102;SDS011;2065;49.790;9.620;2023-04-24T02:11:47;2.60;;;1.03;;
4102;SDS011;2065;49.790;9.620;2023-04-24T02:14:15;1.40;;;1.20;;
4102;SDS011;2065;49.790;9.620;2023-04-24T02:16:43;1.63;;;1.30;;
4102;SDS011;2065;49.790;9.620;2023-04-24T02:19:11;2.50;;;1.20;;
4102;SDS011;2065;49.790;9.620;2023-04-24T02:21:38;3.37;;;1.00;;
4102;SDS011;2065;49.790;9.620;2023-04-24T02:24:07;2.20;;;1.10;;
4102;SDS011;2065;49.790;9.620;2023-04-24T02:26:35;1.93;;;1.03;;
4102;SDS011;2065;49.790;9.620;2023-04-24T02:29:02;1.67;;;1.37;;
4102;SDS011;2065;49.790;9.620;2023-04-24T02:31:30;1.20;;;1.10;;
4102;SDS011;2065;49.790;9.620;2023-04-24T02:33:57;2.23;;;1.13;;
4102;SDS011;2065;49.790;9.620;2023-04-24T02:36:24;1.97;;;1.10;;
4102;SDS011;2065;49.790;9.620;2023-04-24T02:38:51;1.83;;;1.20;;
4102;SDS011;2065;49.790;9.620;2023-04-24T02:41:19;2.17;;;1.10;;
4102;SDS011;2065;49.790;9.620;2023-04-24T02:43:46;1.20;;;1.00;;
4102;SDS011;2065;49.790;9.620;2023-04-24T02:46:13;1.30;;;1.20;;
4102;SDS011;2065;49.790;9.620;2023-04-24T02:48:41;0.90;;;0.80;;
4102;SDS011;2065;49.790;9.620;2023-04-24T02:51:08;3.03;;;1.20;;
4102;SDS011;2065;49.790;9.620;2023-04-24T02:53:35;1.17;;;1.07;;
4102;SDS011;2065;49.790;9.620;2023-04-24T02:56:03;2.30;;;1.30;;
4102;SDS011;2065;49.790;9.620;2023-04-24T02:58:30;4.60;;;1.37;;
4102;SDS011;2065;49.790;9.620;2023-04-24T03:00:57;2.00;;;1.17;;
4102;SDS011;2065;49.790;9.620;2023-04-24T03:03:24;4.27;;;1.20;;
4102;SDS011;2065;49.790;9.620;2023-04-24T03:05:52;1.60;;;1.23;;
4102;SDS011;2065;49.790;9.620;2023-04-24T03:08:20;1.43;;;1.20;;
4102;SDS011;2065;49.790;9.620;2023-04-24T03:10:48;1.40;;;1.13;;
4102;SDS011;2065;49.790;9.620;2023-04-24T03:13:15;1.93;;;1.30;;
4102;SDS011;2065;49.790;9.620;2023-04-24T03:15:42;1.30;;;1.20;;
4102;SDS011;2065;49.790;9.620;2023-04-24T03:18:10;2.40;;;1.20;;
4102;SDS011;2065;49.790;9.620;2023-04-24T03:20:37;1.23;;;1.10;;
4102;SDS011;2065;49.790;9.620;2023-04-24T03:23:05;1.20;;;1.10;;
4102;SDS011;2065;49.790;9.620;2023-04-24T03:25:33;1.30;;;1.10;;
4102;SDS011;2065;49.790;9.620;2023-04-24T03:28:08;1.20;;;1.10;;
4102;SDS011;2065;49.790;9.620;2023-04-24T03:30:41;1.50;;;1.03;;
4102;SDS011;2065;49.790;9.620;2023-04-24T03:33:10;2.23;;;1.10;;
4102;SDS011;2065;49.790;9.620;2023-04-24T03:35:44;1.10;;;1.00;;
4102;SDS011;2065;49.790;9.620;2023-04-24T03:38:13;1.30;;;1.20;;
4102;SDS011;2065;49.790;9.620;2023-04-24T03:40:53;1.20;;;1.10;;
4102;SDS011;2065;49.790;9.620;2023-04-24T03:43:32;1.57;;;1.10;;
4102;SDS011;2065;49.790;9.620;2023-04-24T03:46:00;1.40;;;1.13;;
4102;SDS011;2065;49.790;9.620;2023-04-24T03:48:30;3.17;;;1.30;;
4102;SDS011;2065;49.790;9.620;2023-04-24T03:50:57;1.80;;;1.40;;
4102;SDS011;2065;49.790;9.620;2023-04-24T03:53:26;3.23;;;1.20;;
4102;SDS011;2065;49.790;9.620;2023-04-24T03:55:54;2.50;;;1.37;;
4102;SDS011;2065;49.790;9.620;2023-04-24T03:58:22;1.97;;;1.30;;
4102;SDS011;2065;49.790;9.620;2023-04-24T04:00:50;1.10;;;1.00;;
4102;SDS011;2065;49.790;9.620;2023-04-24T04:03:37;1.67;;;1.10;;
4102;SDS011;2065;49.790;9.620;2023-04-24T04:06:05;1.60;;;1.30;;
4102;SDS011;2065;49.790;9.620;2023-04-24T04:08:33;1.50;;;1.37;;
4102;SDS011;2065;49.790;9.620;2023-04-24T04:11:01;1.50;;;1.20;;
4102;SDS011;2065;49.790;9.620;2023-04-24T04:13:28;3.60;;;1.17;;
4102;SDS011;2065;49.790;9.620;2023-04-24T04:15:56;5.27;;;1.63;;
4102;SDS011;2065;49.790;9.620;2023-04-24T04:18:23;1.30;;;1.20;;
4102;SDS011;2065;49.790;9.620;2023-04-24T04:20:50;2.50;;;1.40;;
4102;SDS011;2065;49.790;9.620;2023-04-24T04:23:18;1.60;;;1.30;;
4102;SDS011;2065;49.790;9.620;2023-04-24T04:26:15;3.43;;;1.40;;
4102;SDS011;2065;49.790;9.620;2023-04-24T04:29:01;3.93;;;1.63;;
4102;SDS011;2065;49.790;9.620;2023-04-24T04:31:29;1.40;;;1.30;;
4102;SDS011;2065;49.790;9.620;2023-04-24T04:34:00;3.80;;;1.43;;
4102;SDS011;2065;49.790;9.620;2023-04-24T04:36:30;1.40;;;1.27;;
4102;SDS011;2065;49.790;9.620;2023-04-24T04:39:06;2.00;;;1.30;;
4102;SDS011;2065;49.790;9.620;2023-04-24T04:41:52;1.50;;;1.40;;
4102;SDS011;2065;49.790;9.620;2023-04-24T04:44:21;1.70;;;1.60;;
4102;SDS011;2065;49.790;9.620;2023-04-24T04:46:50;1.50;;;1.40;;
4102;SDS011;2065;49.790;9.620;2023-04-24T04:49:25;1.40;;;1.30;;
4102;SDS011;2065;49.790;9.620;2023-04-24T04:51:53;2.50;;;1.83;;
4102;SDS011;2065;49.790;9.620;2023-04-24T04:54:23;3.63;;;2.50;;
4102;SDS011;2065;49.790;9.620;2023-04-24T04:56:52;2.23;;;1.93;;
4102;SDS011;2065;49.790;9.620;2023-04-24T04:59:19;2.80;;;1.50;;
4102;SDS011;2065;49.790;9.620;2023-04-24T05:01:49;1.87;;;1.47;;
4102;SDS011;2065;49.790;9.620;2023-04-24T05:04:17;1.90;;;1.30;;
4102;SDS011;2065;49.790;9.620;2023-04-24T05:06:44;1.60;;;1.50;;
4102;SDS011;2065;49.790;9.620;2023-04-24T05:09:12;1.73;;;1.40;;
4102;SDS011;2065;49.790;9.620;2023-04-24T05:11:46;1.43;;;1.33;;
4102;SDS011;2065;49.790;9.620;2023-04-24T05:14:15;1.77;;;1.47;;
4102;SDS011;2065;49.790;9.620;2023-04-24T05:16:43;1.80;;;1.53;;
4102;SDS011;2065;49.790;9.620;2023-04-24T05:19:12;1.20;;;1.10;;
4102;SDS011;2065;49.790;9.620;2023-04-24T05:21:40;2.17;;;1.33;;
4102;SDS011;2065;49.790;9.620;2023-04-24T05:24:09;1.70;;;1.50;;
4102;SDS011;2065;49.790;9.620;2023-04-24T05:26:48;2.90;;;1.30;;
4102;SDS011;2065;49.790;9.620;2023-04-24T05:29:21;2.17;;;1.57;;
4102;SDS011;2065;49.790;9.620;2023-04-24T05:31:48;2.03;;;1.70;;
4102;SDS011;2065;49.790;9.620;2023-04-24T05:34:15;1.73;;;1.63;;
4102;SDS011;2065;49.790;9.620;2023-04-24T05:36:48;1.57;;;1.47;;
4102;SDS011;2065;49.790;9.620;2023-04-24T05:39:15;4.37;;;1.67;;
4102;SDS011;2065;49.790;9.620;2023-04-24T05:41:43;1.60;;;1.50;;
4102;SDS011;2065;49.790;9.620;2023-04-24T05:44:10;2.70;;;1.60;;
4102;SDS011;2065;49.790;9.620;2023-04-24T05:46:38;3.90;;;1.97;;
4102;SDS011;2065;49.790;9.620;2023-04-24T05:49:06;1.60;;;1.40;;
4102;SDS011;2065;49.790;9.620;2023-04-24T05:51:34;2.40;;;2.20;;
4102;SDS011;2065;49.790;9.620;2023-04-24T05:54:01;2.13;;;1.40;;
4102;SDS011;2065;49.790;9.620;2023-04-24T05:56:28;2.03;;;1.63;;
4102;SDS011;2065;49.790;9.620;2023-04-24T05:58:57;2.83;;;1.50;;
4102;SDS011;2065;49.790;9.620;2023-04-24T06:01:24;2.03;;;1.73;;
4102;SDS011;2065;49.790;9.620;2023-04-24T06:04:02;2.73;;;1.80;;
4102;SDS011;2065;49.790;9.620;2023-04-24T06:06:29;2.50;;;2.10;;
4102;SDS011;2065;49.790;9.620;2023-04-24T06:08:58;3.00;;;1.83;;
4102;SDS011;2065;49.790;9.620;2023-04-24T06:11:25;2.23;;;2.00;;
4102;SDS011;2065;49.790;9.620;2023-04-24T06:13:53;3.00;;;2.00;;
4102;SDS011;2065;49.790;9.620;2023-04-24T06:16:49;2.30;;;2.10;;
4102;SDS011;2065;49.790;9.620;2023-04-24T06:19:29;3.93;;;2.23;;
4102;SDS011;2065;49.790;9.620;2023-04-24T06:21:56;2.80;;;1.90;;
4102;SDS011;2065;49.790;9.620;2023-04-24T06:24:26;3.53;;;1.67;;
4102;SDS011;2065;49.790;9.620;2023-04-24T06:26:53;2.17;;;1.97;;
4102;SDS011;2065;49.790;9.620;2023-04-24T06:29:21;3.23;;;1.80;;
4102;SDS011;2065;49.790;9.620;2023-04-24T06:31:49;2.20;;;1.87;;
4102;SDS011;2065;49.790;9.620;2023-04-24T06:34:16;2.00;;;1.80;;
4102;SDS011;2065;49.790;9.620;2023-04-24T06:36:46;2.90;;;2.00;;
4102;SDS011;2065;49.790;9.620;2023-04-24T06:39:13;2.87;;;1.90;;
4102;SDS011;2065;49.790;9.620;2023-04-24T06:41:40;4.47;;;2.10;;
4102;SDS011;2065;49.790;9.620;2023-04-24T06:44:14;2.20;;;1.97;;
4102;SDS011;2065;49.790;9.620;2023-04-24T06:46:41;2.20;;;2.00;;
4102;SDS011;2065;49.790;9.620;2023-04-24T06:49:09;2.50;;;2.13;;
4102;SDS011;2065;49.790;9.620;2023-04-24T06:51:36;2.60;;;2.30;;
4102;SDS011;2065;49.790;9.620;2023-04-24T06:54:04;2.10;;;1.93;;
4102;SDS011;2065;49.790;9.620;2023-04-24T06:56:31;2.27;;;1.70;;
4102;SDS011;2065;49.790;9.620;2023-04-24T06:58:59;2.47;;;1.80;;
4102;SDS011;2065;49.790;9.620;2023-04-24T07:01:26;1.90;;;1.80;;
4102;SDS011;2065;49.790;9.620;2023-04-24T07:03:53;2.07;;;1.97;;
4102;SDS011;2065;49.790;9.620;2023-04-24T07:06:20;2.33;;;2.13;;
4102;SDS011;2065;49.790;9.620;2023-04-24T07:08:48;3.63;;;2.27;;
4102;SDS011;2065;49.790;9.620;2023-04-24T07:11:17;2.10;;;1.90;;
4102;SDS011;2065;49.790;9.620;2023-04-24T07:13:44;2.20;;;2.07;;
4102;SDS011;2065;49.790;9.620;2023-04-24T07:16:11;2.80;;;2.50;;
4102;SDS011;2065;49.790;9.620;2023-04-24T07:18:38;3.10;;;2.47;;
4102;SDS011;2065;49.790;9.620;2023-04-24T07:21:06;2.23;;;1.80;;
4102;SDS011;2065;49.790;9.620;2023-04-24T07:23:33;2.83;;;1.97;;
4102;SDS011;2065;49.790;9.620;2023-04-24T07:26:00;3.03;;;2.53;;
4102;SDS011;2065;49.790;9.620;2023-04-24T07:28:28;10.80;;;2.60;;
4102;SDS011;2065;49.790;9.620;2023-04-24T07:30:56;2.23;;;2.00;;
4102;SDS011;2065;49.790;9.620;2023-04-24T07:33:25;2.47;;;2.27;;
4102;SDS011;2065;49.790;9.620;2023-04-24T07:35:52;2.20;;;2.00;;
4102;SDS011;2065;49.790;9.620;2023-04-24T07:38:19;2.97;;;2.70;;
4102;SDS011;2065;49.790;9.620;2023-04-24T07:40:47;2.63;;;2.43;;
4102;SDS011;2065;49.790;9.620;2023-04-24T07:43:15;3.40;;;2.20;;
4102;SDS011;2065;49.790;9.620;2023-04-24T07:45:44;5.43;;;2.87;;
4102;SDS011;2065;49.790;9.620;2023-04-24T07:48:11;4.03;;;2.80;;
4102;SDS011;2065;49.790;9.620;2023-04-24T07:50:40;3.30;;;2.40;;
4102;SDS011;2065;49.790;9.620;2023-04-24T07:53:07;3.40;;;2.33;;
4102;SDS011;2065;49.790;9.620;2023-04-24T07:55:34;3.67;;;2.40;;
4102;SDS011;2065;49.790;9.620;2023-04-24T07:58:01;3.17;;;2.73;;
4102;SDS011;2065;49.790;9.620;2023-04-24T08:00:28;2.50;;;2.30;;
4102;SDS011;2065;49.790;9.620;2023-04-24T08:02:57;3.83;;;2.90;;
4102;SDS011;2065;49.790;9.620;2023-04-24T08:05:24;2.20;;;2.00;;
4102;SDS011;2065;49.790;9.620;2023-04-24T08:07:53;4.80;;;2.70;;
4102;SDS011;2065;49.790;9.620;2023-04-24T08:10:20;2.20;;;2.00;;
4102;SDS011;2065;49.790;9.620;2023-04-24T08:12:47;2.27;;;2.17;;
4102;SDS011;2065;49.790;9.620;2023-04-24T08:15:14;2.23;;;2.03;;
4102;SDS011;2065;49.790;9.620;2023-04-24T08:17:42;3.70;;;2.17;;
4102;SDS011;2065;49.790;9.620;2023-04-24T08:20:10;2.63;;;2.10;;
4102;SDS011;2065;49.790;9.620;2023-04-24T08:22:39;2.50;;;2.10;;
4102;SDS011;2065;49.790;9.620;2023-04-24T08:25:06;3.73;;;2.23;;
4102;SDS011;2065;49.790;9.620;2023-04-24T08:27:34;2.23;;;1.97;;
4102;SDS011;2065;49.790;9.620;2023-04-24T08:30:04;1.87;;;1.77;;
4102;SDS011;2065;49.790;9.620;2023-04-24T08:32:32;3.17;;;1.50;;
4102;SDS011;2065;49.790;9.620;2023-04-24T08:34:59;1.70;;;1.60;;
4102;SDS011;2065;49.790;9.620;2023-04-24T08:37:28;1.80;;;1.70;;
4102;SDS011;2065;49.790;9.620;2023-04-24T08:39:55;2.13;;;1.60;;
4102;SDS011;2065;49.790;9.620;2023-04-24T08:42:22;2.30;;;2.10;;
4102;SDS011;2065;49.790;9.620;2023-04-24T08:44:50;6.00;;;1.73;;
4102;SDS011;2065;49.790;9.620;2023-04-24T08:47:17;1.87;;;1.73;;
4102;SDS011;2065;49.790;9.620;2023-04-24T08:49:46;1.70;;;1.60;;
4102;SDS011;2065;49.790;9.620;2023-04-24T08:52:15;2.27;;;1.90;;
4102;SDS011;2065;49.790;9.620;2023-04-24T08:54:44;1.73;;;1.57;;
4102;SDS011;2065;49.790;9.620;2023-04-24T08:57:12;1.67;;;1.53;;
4102;SDS011;2065;49.790;9.620;2023-04-24T08:59:40;1.80;;;1.63;;
4102;SDS011;2065;49.790;9.620;2023-04-24T09:02:09;2.13;;;1.80;;
4102;SDS011;2065;49.790;9.620;2023-04-24T09:04:37;1.53;;;1.43;;
4102;SDS011;2065;49.790;9.620;2023-04-24T09:07:06;2.13;;;1.60;;
4102;SDS011;2065;49.790;9.620;2023-04-24T09:09:35;2.47;;;1.80;;
4102;SDS011;2065;49.790;9.620;2023-04-24T09:12:06;2.10;;;1.77;;
4102;SDS011;2065;49.790;9.620;2023-04-24T09:14:35;2.90;;;1.63;;
4102;SDS011;2065;49.790;9.620;2023-04-24T09:17:04;1.80;;;1.70;;
4102;SDS011;2065;49.790;9.620;2023-04-24T09:19:32;1.57;;;1.43;;
4102;SDS011;2065;49.790;9.620;2023-04-24T09:21:59;5.17;;;1.70;;
4102;SDS011;2065;49.790;9.620;2023-04-24T09:24:30;2.17;;;1.57;;
4102;SDS011;2065;49.790;9.620;2023-04-24T09:26:58;3.10;;;1.77;;
4102;SDS011;2065;49.790;9.620;2023-04-24T09:29:28;3.00;;;1.53;;
4102;SDS011;2065;49.790;9.620;2023-04-24T09:31:55;2.10;;;1.90;;
4102;SDS011;2065;49.790;9.620;2023-04-24T09:34:22;2.43;;;1.60;;
4102;SDS011;2065;49.790;9.620;2023-04-24T09:36:50;1.97;;;1.87;;
4102;SDS011;2065;49.790;9.620;2023-04-24T09:39:18;2.80;;;1.80;;
4102;SDS011;2065;49.790;9.620;2023-04-24T09:41:46;2.93;;;2.73;;
4102;SDS011;2065;49.790;9.620;2023-04-24T09:44:14;1.53;;;1.43;;
4102;SDS011;2065;49.790;9.620;2023-04-24T09:46:44;1.43;;;1.33;;
4102;SDS011;2065;49.790;9.620;2023-04-24T09:49:15;3.23;;;1.80;;
4102;SDS011;2065;49.790;9.620;2023-04-24T09:51:46;2.20;;;2.00;;
4102;SDS011;2065;49.790;9.620;2023-04-24T09:54:14;1.80;;;1.70;;
4102;SDS011;2065;49.790;9.620;2023-04-24T09:56:43;2.10;;;1.93;;
4102;SDS011;2065;49.790;9.620;2023-04-24T09:59:11;2.00;;;1.90;;
4102;SDS011;2065;49.790;9.620;2023-04-24T10:01:39;2.40;;;1.80;;
4102;SDS011;2065;49.790;9.620;2023-04-24T10:04:16;4.27;;;1.90;;
4102;SDS011;2065;49.790;9.620;2023-04-24T10:06:44;2.10;;;2.00;;
4102;SDS011;2065;49.790;9.620;2023-04-24T10:09:12;2.10;;;2.00;;
4102;SDS011;2065;49.790;9.620;2023-04-24T10:11:41;2.03;;;1.90;;
4102;SDS011;2065;49.790;9.620;2023-04-24T10:14:11;2.50;;;2.30;;
4102;SDS011;2065;49.790;9.620;2023-04-24T10:16:40;2.20;;;1.93;;
4102;SDS011;2065;49.790;9.620;2023-04-24T10:19:09;2.00;;;1.90;;
4102;SDS011;2065;49.790;9.620;2023-04-24T10:21:39;4.73;;;2.00;;
4102;SDS011;2065;49.790;9.620;2023-04-24T10:24:11;2.47;;;2.27;;
4102;SDS011;2065;49.790;9.620;2023-04-24T10:26:39;3.40;;;2.20;;
4102;SDS011;2065;49.790;9.620;2023-04-24T10:29:07;2.43;;;2.23;;
4102;SDS011;2065;49.790;9.620;2023-04-24T10:31:35;2.40;;;2.20;;
4102;SDS011;2065;49.790;9.620;2023-04-24T10:34:03;2.60;;;1.70;;
4102;SDS011;2065;49.790;9.620;2023-04-24T10:36:32;2.60;;;2.40;;
4102;SDS011;2065;49.790;9.620;2023-04-24T10:39:02;1.90;;;1.80;;
4102;SDS011;2065;49.790;9.620;2023-04-24T10:41:33;2.47;;;2.27;;
4102;SDS011;2065;49.790;9.620;2023-04-24T10:44:06;3.07;;;2.50;;
4102;SDS011;2065;49.790;9.620;2023-04-24T10:46:35;2.33;;;2.13;;
4102;SDS011;2065;49.790;9.620;2023-04-24T10:49:03;4.77;;;2.40;;
4102;SDS011;2065;49.790;9.620;2023-04-24T10:51:44;3.90;;;2.03;;
4102;SDS011;2065;49.790;9.620;2023-04-24T10:54:23;2.10;;;1.97;;
4102;SDS011;2065;49.790;9.620;2023-04-24T10:56:51;2.63;;;2.43;;
4102;SDS011;2065;49.790;9.620;2023-04-24T10:59:26;2.20;;;2.10;;
4102;SDS011;2065;49.790;9.620;2023-04-24T11:01:53;2.30;;;2.10;;
4102;SDS011;2065;49.790;9.620;2023-04-24T11:04:30;2.27;;;2.17;;
4102;SDS011;2065;49.790;9.620;2023-04-24T11:07:00;2.60;;;2.40;;
4102;SDS011;2065;49.790;9.620;2023-04-24T11:09:31;3.53;;;2.47;;
4102;SDS011;2065;49.790;9.620;2023-04-24T11:12:02;2.43;;;2.03;;
4102;SDS011;2065;49.790;9.620;2023-04-24T11:17:30;2.63;;;2.30;;
4102;SDS011;2065;49.790;9.620;2023-04-24T11:20:02;2.70;;;2.10;;
4102;SDS011;2065;49.790;9.620;2023-04-24T11:22:33;2.10;;;1.90;;
4102;SDS011;2065;49.790;9.620;2023-04-24T11:25:03;2.20;;;2.00;;
4102;SDS011;2065;49.790;9.620;2023-04-24T11:27:32;1.83;;;1.63;;
4102;SDS011;2065;49.790;9.620;2023-04-24T11:30:06;2.33;;;1.80;;
4102;SDS011;2065;49.790;9.620;2023-04-24T11:32:34;1.83;;;1.60;;
4102;SDS011;2065;49.790;9.620;2023-04-24T11:35:03;3.00;;;1.57;;
4102;SDS011;2065;49.790;9.620;2023-04-24T11:37:35;2.90;;;1.77;;
4102;SDS011;2065;49.790;9.620;2023-04-24T11:40:05;2.10;;;1.40;;
4102;SDS011;2065;49.790;9.620;2023-04-24T11:42:34;1.83;;;1.70;;
4102;SDS011;2065;49.790;9.620;2023-04-24T11:45:06;4.10;;;1.70;;
4102;SDS011;2065;49.790;9.620;2023-04-24T11:47:34;2.17;;;1.80;;
4102;SDS011;2065;49.790;9.620;2023-04-24T11:50:02;1.73;;;1.63;;
4102;SDS011;2065;49.790;9.620;2023-04-24T11:52:31;2.73;;;2.10;;
4102;SDS011;2065;49.790;9.620;2023-04-24T11:54:59;1.50;;;1.40;;
4102;SDS011;2065;49.790;9.620;2023-04-24T11:57:28;1.70;;;1.60;;
4102;SDS011;2065;49.790;9.620;2023-04-24T11:59:59;2.20;;;1.90;;
4102;SDS011;2065;49.790;9.620;2023-04-24T12:02:26;1.80;;;1.70;;
4102;SDS011;2065;49.790;9.620;2023-04-24T12:04:54;1.83;;;1.73;;
4102;SDS011;2065;49.790;9.620;2023-04-24T12:07:21;1.60;;;1.50;;
4102;SDS011;2065;49.790;9.620;2023-04-24T12:09:54;1.70;;;1.60;;
4102;SDS011;2065;49.790;9.620;2023-04-24T12:12:24;3.13;;;1.80;;
4102;SDS011;2065;49.790;9.620;2023-04-24T12:14:54;2.30;;;2.10;;
4102;SDS011;2065;49.790;9.620;2023-04-24T12:17:26;2.67;;;1.60;;
4102;SDS011;2065;49.790;9.620;2023-04-24T12:19:57;1.80;;;1.70;;
4102;SDS011;2065;49.790;9.620;2023-04-24T12:22:25;2.10;;;1.80;;
4102;SDS011;2065;49.790;9.620;2023-04-24T12:24:56;3.87;;;1.67;;
4102;SDS011;2065;49.790;9.620;2023-04-24T12:27:25;1.63;;;1.53;;
4102;SDS011;2065;49.790;9.620;2023-04-24T12:29:56;3.47;;;2.23;;
4102;SDS011;2065;49.790;9.620;2023-04-24T12:32:24;1.67;;;1.57;;
4102;SDS011;2065;49.790;9.620;2023-04-24T12:34:52;2.03;;;1.83;;
4102;SDS011;2065;49.790;9.620;2023-04-24T12:37:20;2.63;;;1.80;;
4102;SDS011;2065;49.790;9.620;2023-04-24T12:40:00;2.17;;;1.80;;
4102;SDS011;2065;49.790;9.620;2023-04-24T12:42:29;1.97;;;1.80;;
4102;SDS011;2065;49.790;9.620;2023-04-24T12:44:58;1.60;;;1.50;;
4102;SDS011;2065;49.790;9.620;2023-04-24T12:47:27;1.60;;;1.50;;
4102;SDS011;2065;49.790;9.620;2023-04-24T12:49:55;2.00;;;1.90;;
4102;SDS011;2065;49.790;9.620;2023-04-24T12:52:23;1.97;;;1.87;;
4102;SDS011;2065;49.790;9.620;2023-04-24T12:54:52;1.70;;;1.60;;
4102;SDS011;2065;49.790;9.620;2023-04-24T12:57:20;2.67;;;1.60;;
4102;SDS011;2065;49.790;9.620;2023-04-24T12:59:47;4.63;;;1.60;;
4102;SDS011;2065;49.790;9.620;2023-04-24T13:02:16;2.07;;;1.90;;
4102;SDS011;2065;49.790;9.620;2023-04-24T13:04:44;2.30;;;2.10;;
4102;SDS011;2065;49.790;9.620;2023-04-24T13:07:12;2.37;;;1.90;;
4102;SDS011;2065;49.790;9.620;2023-04-24T13:09:40;1.77;;;1.67;;
4102;SDS011;2065;49.790;9.620;2023-04-24T13:12:07;2.77;;;2.50;;
4102;SDS011;2065;49.790;9.620;2023-04-24T13:14:34;1.90;;;1.80;;
4102;SDS011;2065;49.790;9.620;2023-04-24T13:17:02;4.20;;;2.17;;
4102;SDS011;2065;49.790;9.620;2023-04-24T13:19:34;2.40;;;2.20;;
4102;SDS011;2065;49.790;9.620;2023-04-24T13:22:02;4.50;;;1.90;;
4102;SDS011;2065;49.790;9.620;2023-04-24T13:24:29;2.53;;;2.07;;
4102;SDS011;2065;49.790;9.620;2023-04-24T13:26:57;2.50;;;2.33;;
4102;SDS011;2065;49.790;9.620;2023-04-24T13:29:25;2.27;;;2.07;;
4102;SDS011;2065;49.790;9.620;2023-04-24T13:31:53;4.33;;;3.20;;
4102;SDS011;2065;49.790;9.620;2023-04-24T13:34:21;3.40;;;2.77;;
4102;SDS011;2065;49.790;9.620;2023-04-24T13:36:50;2.83;;;2.40;;
4102;SDS011;2065;49.790;9.620;2023-04-24T13:39:17;2.23;;;2.03;;
4102;SDS011;2065;49.790;9.620;2023-04-24T13:41:44;2.70;;;2.20;;
4102;SDS011;2065;49.790;9.620;2023-04-24T13:44:13;2.97;;;2.57;;
4102;SDS011;2065;49.790;9.620;2023-04-24T13:46:40;3.37;;;2.07;;
4102;SDS011;2065;49.790;9.620;2023-04-24T13:49:08;4.00;;;2.80;;
4102;SDS011;2065;49.790;9.620;2023-04-24T13:51:35;3.13;;;2.50;;
4102;SDS011;2065;49.790;9.620;2023-04-24T13:54:04;8.70;;;5.00;;
4102;SDS011;2065;49.790;9.620;2023-04-24T13:56:31;5.63;;;4.13;;
4102;SDS011;2065;49.790;9.620;2023-04-24T13:58:58;3.00;;;2.70;;
4102;SDS011;2065;49.790;9.620;2023-04-24T14:01:25;4.97;;;3.23;;
4102;SDS011;2065;49.790;9.620;2023-04-24T14:03:52;3.80;;;3.47;;
4102;SDS011;2065;49.790;9.620;2023-04-24T14:06:20;5.90;;;3.20;;
4102;SDS011;2065;49.790;9.620;2023-04-24T14:08:48;2.70;;;2.50;;
4102;SDS011;2065;49.790;9.620;2023-04-24T14:11:17;4.27;;;3.17;;
4102;SDS011;2065;49.790;9.620;2023-04-24T14:13:45;4.33;;;3.83;;
4102;SDS011;2065;49.790;9.620;2023-04-24T14:16:12;4.20;;;3.37;;
4102;SDS011;2065;49.790;9.620;2023-04-24T14:18:40;3.97;;;3.57;;
4102;SDS011;2065;49.790;9.620;2023-04-24T14:21:07;2.90;;;2.70;;
4102;SDS011;2065;49.790;9.620;2023-04-24T14:23:34;5.30;;;3.90;;
4102;SDS011;2065;49.790;9.620;2023-04-24T14:26:01;4.93;;;4.40;;
4102;SDS011;2065;49.790;9.620;2023-04-24T14:28:29;4.57;;;3.83;;
4102;SDS011;2065;49.790;9.620;2023-04-24T14:30:57;3.40;;;3.10;;
4102;SDS011;2065;49.790;9.620;2023-04-24T14:33:24;3.27;;;2.97;;
4102;SDS011;2065;49.790;9.620;2023-04-24T14:35:51;3.20;;;2.80;;
4102;SDS011;2065;49.790;9.620;2023-04-24T14:38:18;4.57;;;4.17;;
4102;SDS011;2065;49.790;9.620;2023-04-24T14:40:45;6.27;;;5.47;;
4102;SDS011;2065;49.790;9.620;2023-04-24T14:43:12;4.23;;;3.73;;
4102;SDS011;2065;49.790;9.620;2023-04-24T14:45:40;7.57;;;6.17;;
4102;SDS011;2065;49.790;9.620;2023-04-24T14:48:07;4.50;;;4.10;;
4102;SDS011;2065;49.790;9.620;2023-04-24T14:50:36;3.20;;;2.90;;
4102;SDS011;2065;49.790;9.620;2023-04-24T14:53:03;4.70;;;3.97;;
4102;SDS011;2065;49.790;9.620;2023-04-24T14:55:30;4.33;;;3.93;;
4102;SDS011;2065;49.790;9.620;2023-04-24T14:57:59;8.50;;;3.10;;
4102;SDS011;2065;49.790;9.620;2023-04-24T15:00:26;5.20;;;3.77;;
4102;SDS011;2065;49.790;9.620;2023-04-24T15:02:55;9.40;;;5.57;;
4102;SDS011;2065;49.790;9.620;2023-04-24T15:05:22;9.40;;;5.23;;
4102;SDS011;2065;49.790;9.620;2023-04-24T15:07:50;4.97;;;3.20;;
4102;SDS011;2065;49.790;9.620;2023-04-24T15:10:17;3.20;;;2.90;;
4102;SDS011;2065;49.790;9.620;2023-04-24T15:12:44;3.30;;;2.97;;
4102;SDS011;2065;49.790;9.620;2023-04-24T15:15:11;4.20;;;2.73;;
4102;SDS011;2065;49.790;9.620;2023-04-24T15:17:38;4.60;;;2.93;;
4102;SDS011;2065;49.790;9.620;2023-04-24T15:20:07;3.13;;;2.90;;
4102;SDS011;2065;49.790;9.620;2023-04-24T15:22:35;2.90;;;2.70;;
4102;SDS011;2065;49.790;9.620;2023-04-24T15:25:02;3.30;;;2.80;;
4102;SDS011;2065;49.790;9.620;2023-04-24T15:27:38;7.00;;;3.40;;